Timeline UpdatesTrip UpdatesNews PostsPvt PostsTravel TipsAdmin PostsConv PostsFollowed PostsChat RequestsBlog PostsPNR Posts

Disclaimer
Search
 
 
Tue Sep 2, 2014 00:16:31 ISTHomeTrainsΣChainsAtlasPNRForumGalleryNewsFAQTripsMembersLoginFeedback
No Recent News for this Train
Other Trains in the News **new
Latest...
Cancelled on 20/5/14.
Mon May 19, 2014 (06:12PM)
⇐ Return Journey: Train# 13008

13007/Udyan Abha Toofan Express

OLD Time-Table. New TT will soon be available.
May 08 2014 (6:16PM)
Change Departure Station:
Change Arrival Station:
Post a Train Travel TipPost a Train Travel Tip **new
Post a Comment/Question/Picture/VideoPost a Comment/Question/Picture/Video
Inaugural Run
Wed Jan 01, 1930
Pantry/Catering
✕ NO Pantry Car
✕ NO Catering
Loco/Rake Reversals
AGC/Agra Cantt. (6);
RSA - Rake Sharing
Rake/Coach Composition
LOCO-SLR-GEN-GEN-B1-S5-S4-S3-S2-S1-GEN-GEN-SLR-HCPV-HCPV.
Loco
HWH-NDLS: HWH WAP-4 NDLS-SGNR: TKD WDM-3A
News    PNR    Forum    Time-Table    Availability    Fare Chart    Map    Arr/Dep History    Trips    Gallery    ΣChains    X/O    Timeline    
Travel Time: 32h 5m    64 halts    Distance: 1353 km    Avg Speed: 42 km/hr
Type: Mail/Express
Zone: ER/Eastern
Departs @ 22:55
Platform# ???
SMTWTFS
Raghunathpur/RPR 
Arrives @ 07:00 +2 nights
Platform# 3
SMTWTFS
Shri Ganganagar/SGNR 

64 halts. 211 intermediate Stations between Raghunathpur and Shri Ganganagar

Show ALL intermediate Stations  

#CodeStation NameX/OArrivesAvgDepartsAvgHaltPFDay#KmSpeedElevZoneAddress
1HWHKolkata Howrah Junction (23)  -09:35-111-629.34210mERHowrah 711101, West Bengal
2BDCBandel Junction (7)X  10:32-10:37-5m--1-589.87014mERdist - HOOGHLY, West Bengal
3BWNBarddhaman Junction (8)X  11:35-11:40-5m--1-522.58234mERDist - Barddhaman, West Bengal
4PANPanagarh (4)  12:15-12:16-1m--1-474.65570mERKaksa, West Bengal
5DGRDurgapur (5)X  12:33-12:35-2m31-459.07971mERDurgapur, West Bengal
6UDLAndal Junction (6)X  12:48-12:50-2m--1-441.96286mERAndal, West Bengal
7RNGRaniGanj (4)X  12:57-12:58-1m--1-434.73492mERRaniganj, West Bengal
8ASNAsansol Junction (7)X  13:30-13:35-5m41-416.540113mERDist - bardhaman, West Bengal
9STNSitarampur Junction (5)  13:48-13:50-2m--1-407.858139mERG T Rd Before Asansol, West Bengal
10CRJChittaranjan (3)X  14:07-14:08-1m31-391.566182mERMihijam, Jharkhand
11JMTJamtara (2)X  14:21-14:22-1m11-377.263201mERJamtara, Jharkhand
12VDSVidyasagar (2)  14:39-14:40-1m--1-359.266250mERJamtara, Jharkhand
13MDPMadhupur Junction (4)  15:02-15:12-10m21-335.167254mER06432-224478, Jharkhand
14JSMEJasidih Junction (5)  15:38-15:43-5m--1-306.080271mERJasidih, Jharkhand
15STLSimultala (2)X  16:02-16:03-1m--1-280.630247mERSimultala, Bihar
16JAJJhajha (4)  16:40-16:45-5m31-261.962143mECRJhajha, Bihar
17GHRGidhaur (2)X  16:56-16:57-1m--1-250.573106mECRState Highway 18, Bihar
18JMUJamui (3)X  17:09-17:10-1m--1-235.99481mECRState Highway 72, Bihar
19MNPMananpur (2)  17:23-17:24-1m--1-215.51757mECRState Highway 18, Bihar
20BSQPBansipur  17:33-17:34-1m--1-213.02653mECRKiul, Bihar
21KIULKiul Junction (5)X  17:44-17:48-4m31-208.61253mECRDist. Lakhisarai, Bihar
22LKRLuckeesarai Junction (2)X  17:55-17:56-1m--1-207.24852mECRLakhisarai, Bihar
23MKBMankatha  18:03-18:04-1m--1-201.73547mECRNational Highway 80, Bihar
24DMRXDumri Halt (1)  18:13-18:14-1m11-196.45149mECRNational Highway 80, Bihar
25BRYABarhiya (3)  18:19-18:20-1m--1-192.25647mECRBarahiya, Bihar
26HTZHathidah Junction (2)X  18:30-18:31-1m21-182.85650mECRMusahari, Bihar
27MKAMokama Junction (4)X  18:40-18:44-4m--1-174.47248mECRPatna, Bihar
28MORMor (2)X  18:50-18:51-1m--1-167.25546mECRMor, Bihar
29PHKPunarakh (2)  19:00-19:01-1m--1-158.96251mECRPunarakh, Bihar
30BARHBarh (3)X  19:11-19:12-1m--1-148.56949mECRBarh, Bihar
31ATLAthmal Gola (2)XO  19:20-19:21-1m--1-139.32252mECRPatna, Bihar
32BKPBakhtiyarpur Junction (5)X  19:46-19:48-2m--1-130.27951mECRPatna, Bihar
33KOOKhusropur (2)  19:59-20:00-1m--1-115.75652mECRPatna, Bihar
34FUTFatwa (6)  20:09-20:10-1m--1-107.27353mECRPatna, Bihar
35PNCPatna Saheb (3)X  20:20-20:21-1m--1-95.02659mECRPatna, Bihar
36GZHGulzarbagh (3)X  20:28-20:29-1m--1-92.02055mECRPatna, Bihar
37PNBEPatna Junction (10)X  20:50-21:00-10m41-85.13857mECRPatna 800001, Bihar
38DNRDanapur (5)XO  21:15-21:25-10m--1-75.76058mECRKhagaul, Bihar
39NEONeora (2)X  21:31-21:32-1m--1-69.76161mECRNational Highway 98, Bihar
40SDESadisopur (2)  21:39-21:40-1m--1-62.65164mECRSadisopur, Bihar
41BTABihta (2)X  21:45-21:46-1m--1-58.44862mECRDistt: Patna, Bihar
42KWRKoelwar (2)O  21:57-21:58-1m--1-49.73165mECRNational Highway 30, Bihar
43KUAKulharia (2)  22:05-22:06-1m--1-46.15461mECRChandi Sahar Rd, Bihar
44ARAAra Junction (3)  22:17-22:22-5m--1-36.29263mECRarrah( 06182-233411), Bihar
45BEABihiya (3)  22:36-22:37-1m--1-14.85167mECRBehea, Bihar
46BYNBanahi (2)  22:44-22:45-1m--1-8.95967mECRBanahi, Bihar
47RPR»Raghunathpur (4)»  22:54-22:55-1m--10.07469mECRRaghunathpur, Bihar
48DUREDumraon (3)  23:08-23:09-1m--116.06170mECRDumraon, Bihar
49BXRBuxar (3)X  23:25-23:30-5m--132.38067mECRBuxar, Bihar
50DLNDildarnagar Junction (2)  23:57-23:59-2m--168.55872mECRDildarnagar, Uttar Pradesh
51ZNAZamania (2)XO  00:13-00:14-1m--282.02077mECRGhazipur, Uttar Pradesh
52MGSMughal Sarai Junction (8)XO  02:25-02:40-15m--2126.25583mECRMughalsarai 232101, Uttar Pradesh
53CARChunar Junction (5)X  03:15-03:16-1m22158.16185mNCRChunar Junction, Uttar Pradesh
54MZPMirzapur (3)O  03:47-03:48-1m--2189.44988mNCRMirzapur, Uttar Pradesh
55BDLVindhyachal (3)  03:57-03:58-1m--2196.77488mNCRMirzapur, Uttar Pradesh
56ALDAllahabad Junction (10)X  05:05-05:15-10m22278.977100mNCRAllahabad 211003, Uttar Pradesh
57BREBharwariX  05:44-05:45-1m--2316.075108mNCRBharwari, Uttar Pradesh
58SROSirathu (2)X  06:01-06:02-1m12336.171109mNCRSirathu, Uttar Pradesh
59KGAKhaga (3)  06:23-06:24-1m--2361.052114mNCRFatehpur, Uttar Pradesh
60FTPFatehpur (3)  07:04-07:05-1m--2395.785120mNCRFatehpur, Uttar Pradesh
61BKOBindki Road  07:27-07:28-1m--2426.949124mNCRFatehpur, Uttar Pradesh
62CNBKanpur Central (10)O  08:25-08:40-15m22473.325128mNCRKANPUR-208 001, Uttar Pradesh
63GOYGovindpuri Junction (2)  08:49-08:50-1m--2477.051129mNCRKANPUR-208 006, Uttar Pradesh
64PNKPanki (3)  08:59-09:00-1m--2484.786129mNCRKANPUR-208 020, Uttar Pradesh
65RURARura (4)  09:23-09:24-1m--2517.571137mNCRJhinjhak, Uttar Pradesh
66JJKJhinjhak (3)  09:40-09:41-1m32536.574140mNCRAuraiya, Uttar Pradesh
67PHDPhaphund (4)X  09:57-09:58-1m--2556.467146mNCRdist. Auraiya, Uttar Pradesh
68ULDAchalda (3)X  10:13-10:14-1m--2573.173147mNCRDist. Auraiya(05688-1072), Uttar Pradesh
69BNTBharthana (3)X  10:30-10:31-1m--2592.752147mNCRBharthana, Uttar Pradesh
70ETWEtawah (5)  10:54-10:55-1m22612.580154mNCRDistt. Etawah, Uttar Pradesh
71JGRJaswantnagar (2)X  11:07-11:08-1m--2628.569154mNCRJaswantnagar, Uttar Pradesh
72BDNBhadan (2)  11:25-11:26-1m--2648.052160mNCRFirozabad, Uttar Pradesh
73SKBShikohabad Junction (4)X  11:49-11:50-1m32667.938166mNCRDistrict Firozabad, Uttar Pradesh
74FZDFirozabad (4)  12:21-12:22-1m32687.823164mNCRFirozabad, Uttar Pradesh
75TDLTundla Junction (5)  13:05-13:15-10m22704.321167mNCRDistt.Firozabad, Uttar Pradesh
76AFAgra Fort (3)  14:20-14:25-5m22727.314170mNCRRakabganj, Uttar Pradesh
77IDHIdgah Agra Junction (3)  14:34-14:35-1m--2729.45168mNCRAgra, Uttar Pradesh
78AGCAgra Cantt. (6)XO15:00-15:20-20m32731.613174mNCRAgra, Uttar Pradesh
79RKMRaja Ki Mandi (4)  15:38-15:39-1m12735.665170mNCRAgra, Uttar Pradesh
80MTJMathura Junction (10)  16:25-16:33-8m22785.372179mNCRMathura, Uttar Pradesh
81CHJChata (4)X  16:59-17:00-1m--2816.551 NCRChhata, Uttar Pradesh
82KSVKosi Kalan (3)X  17:12-17:13-1m12826.855189mNCRKosi Kalan, Uttar Pradesh
83PWLPalwal (8)X  17:59-18:00-1m--2869.256200mNRPalwal, Haryana
84ASTAsaoti (5)  18:12-18:13-1m32880.559203mNRAsaoti, Haryana
85BVHBallabgarh (5)  18:23-18:24-1m--2890.450203mNRFaridabad, Haryana
86FDNFaridabad New Town (3)X  18:29-18:30-1m--2894.547204mNRFaridabad, Haryana
87FDBFaridabad (4)  18:35-18:36-1m22898.548206mNRold Faridabad, Haryana
88TKDTuglakabad (4)X  18:50-18:51-1m--2909.633213mNRNear Tughlakabad Metro Station, Delhi NCT
89OKAOkhla (4)  19:02-19:03-1m--2915.618221mNRIshwar Nagar Mathura Road, Delhi NCT
90NZMDelhi Hazrat Nizamuddin (7)X  19:15-19:17-2m32919.348209mNRNew Delhi 110013, Delhi NCT
91TKJTilak Bridge (4)X  19:23-19:24-1m--2924.09214mNRNew Delhi, Delhi NCT
92NDLSNew Delhi (16)X  19:40-20:10-30m22926.514215mNRNew Delhi, Delhi NCT
93DKZDelhi KishanGanj (2)  20:27-20:28-1m--2930.332220mNRSarai Rohilla, Delhi NCT
94SSBShakur BastiX  20:41-20:42-1m--2937.345216mNRPitampura, Delhi NCT
95NNONangloiX  20:52-20:53-1m--2944.858219mNRJJ Colony No 1, Delhi NCT
96BGZBahadurgarh  21:06-21:07-1m--2957.372220mNRBahadurgarh, Haryana
97SPZSamplaX  21:22-21:23-1m--2975.250222mNRSampla, Haryana
98ROKRohtak Junction (3)  21:50-21:55-5m--2997.567220mNRRohtak, Haryana
99JNAJulana  22:23-22:24-1m--21028.950226mNRJulana, Haryana
100JINDJind Junction (3)  22:55-23:00-5m--21054.670222mNR126102., Haryana
101UCAUchana  23:16-23:17-1m--21073.365225mNRDistrict Jind, Haryana
102NRWNarwana Junction (4)  23:31-23:32-1m--21088.573235mNRWay to Narwana, Haryana
103TUNTohana (2)  23:53-23:54-1m--21114.035232mNRTohana, Haryana
104JHLJakhal Junction  00:15-00:25-10m--31126.243225mNRJakhal, Haryana
105BLZBudhladaX  01:06-01:07-1m--31155.848223mNRBudhlada, Punjab
106MSZMansa  01:27-01:28-1m--31171.949222mNRMansa, Punjab
107MAURMaur  01:51-01:52-1m--31190.626220mNRMaur Mandi, Punjab
108BTIBathinda Junction (6)XO  03:15-04:05-50m231226.273208mNRBathinda, Punjab
109GDBGiddarbaha  04:28-04:29-1m--31254.057200mNRGiddarbaha, Punjab
110MOTMalout (1)  04:46-04:47-1m131270.244194mNRMalaut, Punjab
111ABSAbohar  05:27-05:28-1m--31299.735186mNRAbohar, Punjab
112SGNR•Shri Ganganagar•  07:00--331352.7-178mNWRSri Ganganagar, Rajasthan
Scroll to Top
Scroll to Bottom